Time;durP1;ratioP1;P1;durP2;ratioP2;P2;SDS_P1;SDS_P2;PMS_P1;PMS_P2;Temp;Humidity;BMP_temperature;BMP_pressure;BME280_temperature;BME280_humidity;BME280_pressure;Samples;Min_cycle;Max_cycle;Signal;HPM_P1;HPM_P2
2022/08/16 00:01:09;;;;;;;;;25.67;23.00;;;;;23.50;55.33;100262.44;4960170;28;45426;-65
2022/08/16 00:03:35;;;;;;;;;28.33;27.00;;;;;23.57;55.09;100274.50;4961517;28;47712;-66
2022/08/16 00:06:00;;;;;;;;;29.67;27.33;;;;;23.57;54.92;100273.63;4968375;28;45473;-65
2022/08/16 00:08:26;;;;;;;;;26.67;25.00;;;;;23.61;54.81;100275.16;4972029;28;45414;-65
2022/08/16 00:10:52;;;;;;;;;28.00;27.00;;;;;23.56;54.88;100277.25;4965212;28;45460;-66
2022/08/16 00:13:21;;;;;;;;;27.00;26.67;;;;;23.44;55.32;100260.13;4973991;28;46380;-66
2022/08/16 00:15:47;;;;;;;;;26.67;24.00;;;;;23.59;55.24;100293.13;4974246;28;45641;-66
2022/08/16 00:18:16;;;;;;;;;28.33;24.67;;;;;23.60;54.82;100290.34;4977256;28;45385;-65
2022/08/16 00:20:44;;;;;;;;;24.33;22.00;;;;;23.53;54.81;100267.59;4975506;28;45526;-64
2022/08/16 00:23:10;;;;;;;;;28.33;25.67;;;;;23.56;55.16;100285.25;4975928;28;46020;-66
2022/08/16 00:25:36;;;;;;;;;21.67;21.67;;;;;23.62;54.68;100290.25;4973805;28;45444;-65
2022/08/16 00:28:03;;;;;;;;;24.67;24.67;;;;;23.60;54.95;100287.66;4971194;28;45407;-65
2022/08/16 00:30:29;;;;;;;;;27.67;23.67;;;;;23.40;54.73;100256.78;4962829;28;45632;-66
2022/08/16 00:32:57;;;;;;;;;25.33;25.33;;;;;23.59;55.04;100293.13;4951883;28;46155;-65
2022/08/16 00:35:31;;;;;;;;;30.33;27.33;;;;;23.62;54.90;100298.28;4953523;28;45384;-65
2022/08/16 00:37:58;;;;;;;;;24.67;24.67;;;;;23.59;55.18;100299.31;4953009;28;45490;-64
2022/08/16 00:40:38;;;;;;;;;29.67;28.33;;;;;23.58;54.73;100294.06;4953974;28;45320;-65
2022/08/16 00:43:08;;;;;;;;;27.00;26.33;;;;;23.59;54.71;100291.31;4953193;28;45483;-65
2022/08/16 00:45:46;;;;;;;;;25.67;24.00;;;;;23.58;54.75;100300.25;4953498;28;45461;-66
2022/08/16 00:48:14;;;;;;;;;25.00;25.00;;;;;23.58;54.94;100296.72;4951917;28;45415;-65
2022/08/16 00:50:41;;;;;;;;;26.33;24.67;;;;;23.56;55.20;100293.28;4953487;28;45594;-64
2022/08/16 00:53:09;;;;;;;;;26.33;26.00;;;;;23.56;55.35;100294.13;4952874;28;45398;-65
2022/08/16 00:55:40;;;;;;;;;24.67;24.33;;;;;23.53;55.91;100288.97;4952538;28;45440;-65
2022/08/16 00:58:08;;;;;;;;;28.00;25.00;;;;;23.39;55.56;100279.09;4952689;28;45366;-66
2022/08/16 01:00:40;;;;;;;;;25.33;25.00;;;;;23.35;55.63;100264.22;4953082;28;45406;-66
2022/08/16 01:03:10;;;;;;;;;26.33;26.33;;;;;23.47;55.46;100284.00;4959295;28;46807;-65
2022/08/16 01:05:37;;;;;;;;;23.33;22.33;;;;;23.35;55.72;100260.66;4972064;28;45435;-65
2022/08/16 01:08:05;;;;;;;;;29.33;27.00;;;;;23.38;55.66;100265.84;4973733;28;45365;-66
2022/08/16 01:10:32;;;;;;;;;25.33;25.33;;;;;23.44;55.24;100262.78;4973569;28;45330;-65
2022/08/16 01:13:01;;;;;;;;;28.33;27.67;;;;;23.37;55.74;100256.09;4972406;28;46142;-66
2022/08/16 01:15:27;;;;;;;;;24.67;22.33;;;;;23.39;55.56;100265.72;4972098;28;45547;-66
2022/08/16 01:17:54;;;;;;;;;28.67;25.33;;;;;23.44;55.37;100266.34;4972468;28;45490;-66
2022/08/16 01:20:24;;;;;;;;;27.00;25.33;;;;;23.45;55.78;100268.06;4974975;28;45543;-65
2022/08/16 01:22:52;;;;;;;;;25.67;25.67;;;;;23.40;55.79;100272.81;4960128;28;46407;-65
2022/08/16 01:25:28;;;;;;;;;30.00;26.00;;;;;23.39;55.47;100273.75;4971574;28;45518;-66
2022/08/16 01:27:57;;;;;;;;;27.33;24.33;;;;;23.35;56.06;100268.69;4957276;28;45854;-66
2022/08/16 01:30:29;;;;;;;;;29.33;26.67;;;;;23.32;56.07;100274.22;4971928;28;45398;-66
2022/08/16 01:32:57;;;;;;;;;30.67;28.33;;;;;23.35;56.04;100279.38;4971625;28;45489;-66
2022/08/16 01:35:28;;;;;;;;;26.00;24.00;;;;;23.37;55.50;100272.13;4972102;28;45504;-66
2022/08/16 01:37:56;;;;;;;;;23.67;23.33;;;;;23.33;55.16;100266.13;4972130;28;45813;-65
2022/08/16 01:40:28;;;;;;;;;29.67;26.67;;;;;23.32;55.23;100258.19;4971071;28;45509;-66
2022/08/16 01:42:54;;;;;;;;;29.33;27.00;;;;;23.33;55.02;100260.78;4971593;28;45677;-65
2022/08/16 01:45:20;;;;;;;;;28.67;25.67;;;;;23.42;55.51;100264.69;4971902;28;45503;-66
2022/08/16 01:47:49;;;;;;;;;28.67;26.67;;;;;23.39;55.47;100264.88;4972123;28;45436;-66
2022/08/16 01:50:14;;;;;;;;;26.33;26.33;;;;;23.39;55.13;100264.88;4971301;28;45499;-66
2022/08/16 01:52:41;;;;;;;;;26.00;23.00;;;;;23.36;55.37;100259.72;4971437;28;45436;-66
2022/08/16 01:55:07;;;;;;;;;23.33;23.33;;;;;23.39;55.61;100264.88;4971760;28;45844;-66
2022/08/16 01:57:34;;;;;;;;;25.67;23.67;;;;;23.37;55.65;100264.09;4971373;28;45530;-65
2022/08/16 02:00:00;;;;;;;;;27.00;25.67;;;;;23.34;55.58;100261.63;4971618;28;45472;-66
2022/08/16 02:02:26;;;;;;;;;23.33;21.67;;;;;23.42;55.45;100270.91;4971491;28;45306;-65
2022/08/16 02:04:52;;;;;;;;;24.67;24.33;;;;;23.41;55.45;100268.31;4971376;28;45860;-66
2022/08/16 02:07:23;;;;;;;;;26.00;26.00;;;;;23.35;55.44;100279.38;4975801;28;45333;-66
2022/08/16 02:09:54;;;;;;;;;25.33;23.67;;;;;23.24;55.46;100253.28;4974808;28;45393;-66
2022/08/16 02:12:20;;;;;;;;;25.67;24.67;;;;;23.20;55.82;100259.75;4975332;28;45483;-66
2022/08/16 02:14:46;;;;;;;;;25.67;23.67;;;;;23.11;55.94;100257.59;4973022;28;45394;-65
2022/08/16 02:17:12;;;;;;;;;25.67;25.67;;;;;23.23;56.09;100270.25;4969762;28;45383;-65
2022/08/16 02:19:42;;;;;;;;;26.00;24.67;;;;;22.92;55.75;100218.59;4971614;28;45436;-65
2022/08/16 02:22:10;;;;;;;;;28.67;27.00;;;;;23.25;55.95;100274.59;4970160;28;47665;-66
2022/08/16 02:24:37;;;;;;;;;24.33;23.67;;;;;23.17;56.33;100265.28;4971563;28;45404;-65
2022/08/16 02:27:03;;;;;;;;;23.67;22.67;;;;;23.21;56.02;100272.19;4971202;28;46219;-66
2022/08/16 02:29:29;;;;;;;;;23.00;23.00;;;;;23.22;55.75;100271.22;4971512;28;45353;-65
2022/08/16 02:31:55;;;;;;;;;26.67;26.67;;;;;23.14;56.21;100260.97;4970787;28;45856;-65
2022/08/16 02:34:20;;;;;;;;;31.00;27.33;;;;;23.02;56.76;100256.34;4974162;28;45170;-66
2022/08/16 02:36:50;;;;;;;;;31.00;27.67;;;;;22.98;56.72;100254.75;4971206;28;45542;-65
2022/08/16 02:39:18;;;;;;;;;33.00;32.00;;;;;22.91;57.13;100248.06;4970623;28;45543;-66
2022/08/16 02:41:46;;;;;;;;;31.33;29.67;;;;;22.78;57.07;100215.81;4973033;28;45948;-65
2022/08/16 02:44:13;;;;;;;;;38.00;33.33;;;;;22.91;56.98;100210.66;4972530;28;45501;-64
2022/08/16 02:46:39;;;;;;;;;34.67;30.33;;;;;22.95;57.01;100201.53;4969211;28;45393;-66
2022/08/16 02:49:05;;;;;;;;;40.33;37.00;;;;;22.94;57.46;100211.34;4969019;28;45325;-66
2022/08/16 02:51:32;;;;;;;;;35.00;33.00;;;;;22.82;57.74;100209.38;4961487;28;45501;-66
2022/08/16 02:53:58;;;;;;;;;35.00;32.67;;;;;22.79;57.64;100233.59;4968119;28;45446;-66
2022/08/16 02:56:24;;;;;;;;;31.67;30.67;;;;;22.78;57.58;100227.41;4963739;28;45350;-66
2022/08/16 02:58:51;;;;;;;;;33.33;32.00;;;;;22.74;57.61;100219.66;4966656;28;45364;-65
2022/08/16 03:01:24;;;;;;;;;35.00;31.00;;;;;22.71;57.75;100222.47;4963002;28;45696;-65
2022/08/16 03:03:50;;;;;;;;;30.33;26.00;;;;;22.68;57.91;100218.16;4970095;28;45515;-66
2022/08/16 03:06:19;;;;;;;;;37.00;33.33;;;;;22.63;58.42;100201.56;4965786;28;45480;-66
2022/08/16 03:08:46;;;;;;;;;42.75;36.50;;;;;22.50;59.04;100203.22;4968282;28;45410;-66
2022/08/16 03:11:12;;;;;;;;;37.67;32.00;;;;;22.36;59.11;100195.97;4967810;28;45487;-66
2022/08/16 03:13:42;;;;;;;;;35.33;31.67;;;;;22.30;59.08;100194.47;4971917;28;45477;-67
2022/08/16 03:16:07;;;;;;;;;38.33;35.33;;;;;22.33;59.29;100220.13;4972720;28;45314;-65
2022/08/16 03:18:33;;;;;;;;;41.33;35.33;;;;;22.27;59.83;100218.66;4970705;28;45240;-66
2022/08/16 03:20:59;;;;;;;;;36.00;33.33;;;;;22.26;60.09;100211.63;4972326;28;45526;-66
2022/08/16 03:23:25;;;;;;;;;36.33;33.67;;;;;22.27;59.94;100212.47;4972434;28;45687;-65
2022/08/16 03:25:52;;;;;;;;;42.00;34.33;;;;;22.23;60.07;100218.00;4970640;28;45528;-66
2022/08/16 03:28:19;;;;;;;;;39.00;34.67;;;;;22.21;60.14;100241.22;4974633;28;45407;-65
2022/08/16 03:30:46;;;;;;;;;36.00;33.67;;;;;22.20;60.35;100235.91;4973455;28;45449;-66
2022/08/16 03:33:11;;;;;;;;;38.33;32.67;;;;;22.14;60.83;100234.47;4969364;28;45523;-66
2022/08/16 03:35:38;;;;;;;;;34.67;33.33;;;;;22.14;60.95;100242.47;4970527;28;45857;-65
2022/08/16 03:38:06;;;;;;;;;36.67;34.00;;;;;22.16;60.80;100232.56;4970116;28;45709;-65
2022/08/16 03:40:33;;;;;;;;;38.67;34.67;;;;;22.09;60.40;100217.84;4972837;28;45966;-65
2022/08/16 03:43:00;;;;;;;;;37.67;34.33;;;;;22.20;60.44;100246.59;4974229;28;45508;-66
2022/08/16 03:45:25;;;;;;;;;36.00;33.00;;;;;22.16;60.27;100232.56;4973533;28;45427;-64
2022/08/16 03:47:51;;;;;;;;;35.00;32.33;;;;;22.18;60.29;100249.34;4970301;28;45486;-65
2022/08/16 03:50:17;;;;;;;;;37.00;34.00;;;;;22.12;60.22;100248.81;4970536;28;46325;-65
2022/08/16 03:52:43;;;;;;;;;37.00;31.67;;;;;22.06;60.75;100252.66;4987739;28;45504;-65
2022/08/16 03:55:11;;;;;;;;;40.00;35.00;;;;;22.06;60.97;100262.47;4973268;28;45460;-66
2022/08/16 03:57:36;;;;;;;;;36.33;31.67;;;;;22.06;60.74;100259.81;4973251;28;45400;-67
2022/08/16 04:00:14;;;;;;;;;35.00;33.00;;;;;22.12;60.77;100273.69;4974035;28;45460;-65
2022/08/16 04:02:43;;;;;;;;;35.67;34.33;;;;;22.11;61.12;100265.75;4975478;28;45857;-65
2022/08/16 04:05:11;;;;;;;;;39.75;33.75;;;;;22.03;60.92;100256.34;4973369;28;45415;-65
2022/08/16 04:07:36;;;;;;;;;29.00;28.00;;;;;22.06;60.70;100255.31;4973344;28;45479;-65
2022/08/16 04:10:07;;;;;;;;;34.67;32.33;;;;;22.17;60.31;100254.78;4972971;28;46605;-65
2022/08/16 04:12:32;;;;;;;;;33.00;30.00;;;;;22.17;60.45;100260.09;4973164;28;45535;-66
2022/08/16 04:15:00;;;;;;;;;25.67;25.67;;;;;22.10;60.46;100254.22;4973019;28;45401;-66
2022/08/16 04:17:26;;;;;;;;;27.67;26.33;;;;;22.18;60.10;100253.81;4975297;28;45385;-65
2022/08/16 04:19:52;;;;;;;;;29.00;25.00;;;;;22.18;60.39;100257.34;4976987;28;45449;-65
2022/08/16 04:22:18;;;;;;;;;25.00;23.33;;;;;22.19;60.16;100253.75;4977120;28;45479;-65
2022/08/16 04:24:44;;;;;;;;;28.67;27.33;;;;;22.21;60.39;100264.38;4973103;28;45768;-65
2022/08/16 04:27:10;;;;;;;;;25.00;21.00;;;;;22.19;60.32;100253.75;4972776;28;45493;-65
2022/08/16 04:29:35;;;;;;;;;27.33;23.67;;;;;22.26;60.46;100267.66;4973897;28;45447;-66
2022/08/16 04:32:01;;;;;;;;;28.67;25.67;;;;;22.14;60.55;100239.78;4976877;28;45506;-65
2022/08/16 04:34:30;;;;;;;;;26.33;25.33;;;;;22.23;60.69;100270.47;4977173;28;45372;-64
2022/08/16 04:36:57;;;;;;;;;30.00;26.67;;;;;22.14;60.76;100252.25;4973413;28;45482;-65
2022/08/16 04:39:27;;;;;;;;;25.67;25.67;;;;;22.16;60.78;100266.38;4972323;28;45510;-65
2022/08/16 04:41:53;;;;;;;;;22.67;22.67;;;;;22.23;60.41;100262.44;4972380;28;45610;-65
2022/08/16 04:44:18;;;;;;;;;27.33;23.00;;;;;22.22;60.48;100261.59;4974219;28;45290;-65
2022/08/16 04:46:44;;;;;;;;;26.33;25.33;;;;;22.16;60.28;100245.91;4976749;28;45359;-64
2022/08/16 04:49:10;;;;;;;;;29.33;27.67;;;;;22.29;60.38;100261.28;4973353;28;45890;-64
2022/08/16 04:51:40;;;;;;;;;30.67;25.67;;;;;22.25;60.26;100263.25;4972988;28;45539;-64
2022/08/16 04:54:06;;;;;;;;;27.67;27.33;;;;;22.19;60.73;100269.75;4972621;28;45755;-64
2022/08/16 04:56:32;;;;;;;;;26.67;25.67;;;;;22.09;60.56;100251.63;4972713;28;45349;-63
2022/08/16 04:58:58;;;;;;;;;26.67;23.67;;;;;22.26;60.29;100272.97;4972368;28;45407;-65
2022/08/16 05:01:24;;;;;;;;;25.67;24.67;;;;;22.08;60.46;100242.78;4974591;28;45477;-65
2022/08/16 05:03:49;;;;;;;;;28.67;25.33;;;;;22.25;60.70;100275.72;4973649;28;45428;-64
2022/08/16 05:06:15;;;;;;;;;36.00;34.67;;;;;22.13;60.62;100270.06;4988036;28;45370;-66
2022/08/16 05:08:40;;;;;;;;;40.00;34.00;;;;;21.92;60.80;100247.19;4971710;28;46532;-65
2022/08/16 05:11:09;;;;;;;;;30.33;28.67;;;;;22.06;60.95;100281.13;4976854;28;45467;-65
2022/08/16 05:13:37;;;;;;;;;32.33;29.00;;;;;22.01;61.13;100287.56;4977342;28;45570;-64
2022/08/16 05:16:03;;;;;;;;;28.00;27.00;;;;;22.02;61.04;100286.66;4974060;28;45383;-65
2022/08/16 05:18:28;;;;;;;;;34.33;31.67;;;;;21.98;61.05;100279.75;4972063;28;45420;-64
2022/08/16 05:20:54;;;;;;;;;32.00;28.67;;;;;22.06;60.93;100286.47;4975868;28;45297;-65
2022/08/16 05:23:20;;;;;;;;;31.00;30.00;;;;;22.09;60.62;100294.31;4972427;28;45252;-64
2022/08/16 05:25:45;;;;;;;;;25.00;24.67;;;;;22.00;61.09;100301.00;4972741;28;45333;-65
2022/08/16 05:28:11;;;;;;;;;30.00;28.67;;;;;22.10;60.99;100310.22;4972186;28;46539;-64
2022/08/16 05:30:37;;;;;;;;;29.33;27.00;;;;;22.17;60.95;100310.78;4972575;28;45754;-64
2022/08/16 05:33:04;;;;;;;;;28.33;28.00;;;;;22.25;60.49;100313.91;4972509;28;45845;-67
2022/08/16 05:35:30;;;;;;;;;25.67;25.33;;;;;22.24;60.88;100320.22;4971901;28;45377;-66
2022/08/16 05:37:55;;;;;;;;;31.00;28.67;;;;;22.19;60.75;100314.22;4971827;28;45394;-66
2022/08/16 05:40:21;;;;;;;;;33.67;28.67;;;;;22.15;61.13;100292.19;4971495;28;45480;-65
2022/08/16 05:42:47;;;;;;;;;32.67;30.00;;;;;22.10;61.00;100288.91;4972137;28;45342;-67
2022/08/16 05:45:13;;;;;;;;;34.67;32.33;;;;;22.03;61.26;100285.69;4972227;28;45547;-67
2022/08/16 05:47:39;;;;;;;;;36.67;32.67;;;;;21.98;61.52;100285.06;4971504;28;45457;-67
2022/08/16 05:50:05;;;;;;;;;32.00;31.33;;;;;22.10;61.53;100312.06;4969952;28;45682;-64
2022/08/16 05:52:31;;;;;;;;;33.00;31.33;;;;;22.11;61.83;100319.09;4971787;28;45379;-65
2022/08/16 05:54:57;;;;;;;;;36.67;29.67;;;;;22.01;62.15;100318.72;4971629;28;45499;-64
2022/08/16 05:57:23;;;;;;;;;33.00;30.33;;;;;21.84;62.27;100298.25;4970763;28;46457;-65
2022/08/16 05:59:48;;;;;;;;;35.33;30.33;;;;;21.91;62.08;100310.34;4972379;28;45655;-64
2022/08/16 06:02:15;;;;;;;;;29.67;29.67;;;;;22.02;62.18;100321.31;4972440;28;45434;-63
2022/08/16 06:04:40;;;;;;;;;23.67;23.67;;;;;22.06;62.08;100318.47;4972016;28;45797;-64
2022/08/16 06:07:07;;;;;;;;;28.33;25.67;;;;;22.12;61.99;100335.03;4971474;28;45418;-65
2022/08/16 06:09:33;;;;;;;;;29.33;28.33;;;;;21.98;62.11;100305.56;4972214;28;45484;-65
2022/08/16 06:12:00;;;;;;;;;28.67;28.00;;;;;22.19;61.77;100336.44;4971739;28;45418;-64
2022/08/16 06:14:26;;;;;;;;;29.00;26.67;;;;;22.24;61.81;100338.88;4970921;28;45494;-65
2022/08/16 06:16:52;;;;;;;;;32.67;30.00;;;;;22.26;61.88;100350.34;4971185;28;46226;-65
2022/08/16 06:19:18;;;;;;;;;30.00;26.67;;;;;22.29;61.97;100352.84;4971257;28;45432;-65
2022/08/16 06:21:46;;;;;;;;;31.00;27.33;;;;;22.40;61.26;100337.13;4972464;28;45456;-65
2022/08/16 06:24:11;;;;;;;;;35.00;32.33;;;;;21.77;61.33;100239.06;4972100;28;45571;-65
2022/08/16 06:26:37;;;;;;;;;37.67;33.00;;;;;22.58;61.05;100339.75;4972244;28;46020;-66
2022/08/16 06:29:03;;;;;;;;;34.67;31.67;;;;;22.52;61.07;100337.38;4974216;28;45334;-66
2022/08/16 06:31:29;;;;;;;;;32.33;30.33;;;;;22.46;61.23;100333.25;4975889;28;45304;-66
2022/08/16 06:33:54;;;;;;;;;32.00;28.67;;;;;22.46;61.39;100343.94;4971519;28;45624;-65
2022/08/16 06:36:22;;;;;;;;;36.00;33.33;;;;;22.33;61.94;100337.50;4967823;28;45515;-66
2022/08/16 06:38:47;;;;;;;;;32.33;31.67;;;;;22.16;62.22;100341.94;4969146;28;45333;-66
2022/08/16 06:41:13;;;;;;;;;40.00;35.00;;;;;21.96;62.75;100324.28;4968501;28;45355;-66
2022/08/16 06:43:39;;;;;;;;;37.00;33.33;;;;;22.04;62.80;100318.53;4967798;28;45469;-65
2022/08/16 06:46:09;;;;;;;;;34.33;33.33;;;;;22.07;62.42;100322.84;4968368;28;46254;-66
2022/08/16 06:48:36;;;;;;;;;28.00;28.00;;;;;22.08;62.27;100325.44;4965879;28;45481;-66
2022/08/16 06:51:05;;;;;;;;;30.67;29.00;;;;;22.10;61.84;100334.25;4968110;28;45408;-66
2022/08/16 06:53:32;;;;;;;;;33.00;32.33;;;;;22.16;61.74;100341.03;4967387;28;45787;-66
2022/08/16 06:55:59;;;;;;;;;31.33;30.00;;;;;22.19;61.54;100332.91;4969026;28;46337;-66
2022/08/16 06:58:25;;;;;;;;;37.33;32.33;;;;;22.19;61.80;100332.91;4967863;28;45522;-67
2022/08/16 07:00:50;;;;;;;;;33.33;31.33;;;;;22.27;61.36;100338.72;4969414;28;45397;-66
2022/08/16 07:03:19;;;;;;;;;31.33;29.33;;;;;22.23;61.48;100339.81;4969437;28;45742;-65
2022/08/16 07:05:45;;;;;;;;;29.67;29.67;;;;;22.30;61.36;100338.53;4969089;28;47839;-65
2022/08/16 07:08:11;;;;;;;;;29.33;29.00;;;;;22.26;61.58;100323.66;4967769;28;45508;-65
2022/08/16 07:10:38;;;;;;;;;35.67;31.33;;;;;22.38;61.06;100341.69;4967603;28;45578;-66
2022/08/16 07:13:04;;;;;;;;;32.67;30.33;;;;;22.37;61.27;100342.59;4973790;28;45389;-66
2022/08/16 07:15:30;;;;;;;;;34.00;29.00;;;;;22.33;61.53;100337.50;4967681;28;46274;-66
2022/08/16 07:17:56;;;;;;;;;32.00;27.00;;;;;22.36;61.40;100354.25;4969098;28;45690;-66
2022/08/16 07:20:24;;;;;;;;;37.00;30.67;;;;;22.22;61.40;100344.28;4967733;28;45406;-65
2022/08/16 07:22:50;;;;;;;;;28.00;27.67;;;;;22.18;61.69;100332.03;4968886;28;45437;-65
2022/08/16 07:25:19;;;;;;;;;33.00;30.00;;;;;22.16;61.95;100325.94;4968767;28;45376;-66
2022/08/16 07:27:45;;;;;;;;;33.00;30.67;;;;;22.31;61.89;100350.09;4969148;28;45485;-66
2022/08/16 07:30:13;;;;;;;;;22.33;22.00;;;;;22.32;61.71;100355.34;4972959;28;45478;-66
2022/08/16 07:32:39;;;;;;;;;31.67;29.00;;;;;22.37;61.41;100358.63;4974714;28;45520;-66
2022/08/16 07:35:05;;;;;;;;;32.67;29.33;;;;;22.30;61.20;100335.88;4974750;28;45512;-66
2022/08/16 07:37:31;;;;;;;;;37.00;31.67;;;;;22.40;61.05;100349.59;4970787;28;45526;-66
2022/08/16 07:39:57;;;;;;;;;35.00;30.33;;;;;22.27;61.31;100352.06;4963790;28;45552;-66
2022/08/16 07:42:26;;;;;;;;;27.33;27.00;;;;;22.34;61.31;100361.47;4956972;28;45464;-68
2022/08/16 07:44:51;;;;;;;;;32.00;28.67;;;;;22.39;60.89;100362.06;4973817;28;46127;-67
2022/08/16 07:47:17;;;;;;;;;31.00;29.67;;;;;22.36;61.16;100366.72;4966583;28;45487;-65
2022/08/16 07:49:43;;;;;;;;;30.00;30.00;;;;;22.29;61.49;100360.00;4962816;28;45508;-65
2022/08/16 07:52:09;;;;;;;;;30.00;28.67;;;;;22.33;61.42;100365.09;4955627;28;45746;-67
2022/08/16 07:54:37;;;;;;;;;31.00;30.00;;;;;22.25;61.28;100367.28;4961291;28;45659;-66
2022/08/16 07:57:03;;;;;;;;;29.67;27.33;;;;;22.21;61.22;100347.91;4971680;28;45433;-68
2022/08/16 07:59:29;;;;;;;;;33.00;30.33;;;;;22.26;61.15;100345.00;4972496;28;45499;-67
2022/08/16 08:01:54;;;;;;;;;26.00;25.33;;;;;22.46;61.15;100373.28;4972465;28;45321;-67
2022/08/16 08:04:20;;;;;;;;;29.00;28.33;;;;;22.57;60.64;100354.03;4971635;28;45669;-66
2022/08/16 08:06:46;;;;;;;;;31.33;26.67;;;;;22.65;60.61;100367.81;4972364;28;45459;-65
2022/08/16 08:09:11;;;;;;;;;29.00;28.00;;;;;22.67;60.39;100352.59;4971050;28;45862;-66
2022/08/16 08:11:41;;;;;;;;;25.33;25.33;;;;;22.79;60.05;100343.91;4972540;28;45566;-67
2022/08/16 08:14:07;;;;;;;;;27.00;23.67;;;;;23.12;59.76;100358.19;4972421;28;46769;-66
2022/08/16 08:16:33;;;;;;;;;22.00;22.00;;;;;23.37;58.41;100353.19;4977083;28;45337;-65
2022/08/16 08:19:00;;;;;;;;;22.67;21.67;;;;;23.43;57.84;100349.28;4974786;28;45336;-66
2022/08/16 08:21:25;;;;;;;;;26.33;24.67;;;;;23.38;56.85;100354.03;4972945;28;45781;-65
2022/08/16 08:23:51;;;;;;;;;25.67;23.00;;;;;23.34;56.39;100363.16;4972957;28;45685;-66
2022/08/16 08:26:18;;;;;;;;;24.33;19.33;;;;;23.26;56.45;100343.09;4976415;28;45425;-66
2022/08/16 08:28:44;;;;;;;;;21.67;21.00;;;;;23.27;56.11;100350.13;4973419;28;45528;-65
2022/08/16 08:31:10;;;;;;;;;15.33;13.33;;;;;23.39;55.97;100359.25;4971402;28;45408;-65
2022/08/16 08:33:37;;;;;;;;;20.33;18.67;;;;;23.53;55.92;100368.31;4972692;28;45909;-66
2022/08/16 08:36:06;;;;;;;;;18.67;18.67;;;;;23.57;55.56;100360.03;4974684;28;45438;-66
2022/08/16 08:38:33;;;;;;;;;21.33;20.67;;;;;23.67;55.48;100374.56;4973540;28;45834;-65
2022/08/16 08:40:59;;;;;;;;;21.33;21.33;;;;;23.69;54.57;100369.16;4972959;28;45526;-64
2022/08/16 08:43:25;;;;;;;;;22.33;20.33;;;;;23.84;54.20;100367.41;4976926;28;45494;-68
2022/08/16 08:45:54;;;;;;;;;19.33;18.00;;;;;23.88;53.75;100342.22;4974991;28;45596;-66
2022/08/16 08:48:20;;;;;;;;;21.67;21.67;;;;;24.20;53.60;100368.84;4970939;28;45429;-66
2022/08/16 08:50:45;;;;;;;;;20.33;18.33;;;;;24.18;52.65;100360.03;4972733;28;45411;-67
2022/08/16 08:53:15;;;;;;;;;17.33;16.67;;;;;24.44;52.78;100363.78;4972502;28;45476;-65
2022/08/16 08:55:41;;;;;;;;;21.33;19.33;;;;;24.41;52.80;100351.47;4972500;28;45471;-64
2022/08/16 08:58:12;;;;;;;;;19.67;19.00;;;;;24.41;52.50;100345.25;4984884;28;45568;-64
2022/08/16 09:00:38;;;;;;;;;23.67;19.33;;;;;24.65;52.03;100378.56;4966297;28;45401;-65
2022/08/16 09:03:03;;;;;;;;;19.67;19.33;;;;;24.51;51.08;100358.00;4972124;28;45522;-64
2022/08/16 09:05:29;;;;;;;;;23.00;19.00;;;;;24.52;51.39;100366.91;4967814;28;45772;-63
2022/08/16 09:07:55;;;;;;;;;17.67;16.33;;;;;24.39;51.82;100369.41;4972701;28;45809;-65
2022/08/16 09:10:21;;;;;;;;;17.00;16.33;;;;;24.45;52.07;100369.06;4976849;28;45484;-64
2022/08/16 09:12:47;;;;;;;;;16.33;16.00;;;;;24.63;51.79;100383.16;4975052;28;45823;-64
2022/08/16 09:15:14;;;;;;;;;19.67;19.33;;;;;24.71;51.93;100382.69;4970618;28;45608;-64
2022/08/16 09:17:41;;;;;;;;;15.33;15.33;;;;;24.85;51.70;100385.34;4963758;28;45424;-64
2022/08/16 09:20:09;;;;;;;;;14.67;14.67;;;;;24.97;51.46;100384.56;4976683;28;46016;-63
2022/08/16 09:22:36;;;;;;;;;23.33;19.67;;;;;25.03;50.85;100372.59;4975793;28;46360;-65
2022/08/16 09:25:03;;;;;;;;;21.67;21.67;;;;;24.90;51.48;100385.91;4971919;28;45761;-65
2022/08/16 09:30:03;;;;;;;;;15.33;14.33;;;;;25.05;50.97;100397.47;5086795;27;45916;-65
2022/08/16 09:32:29;;;;;;;;;24.00;22.00;;;;;25.13;51.45;100400.53;5070241;28;45705;-66
2022/08/16 09:34:55;;;;;;;;;21.33;21.33;;;;;25.16;51.43;100403.00;5069827;28;45334;-65
2022/08/16 09:37:20;;;;;;;;;18.00;17.00;;;;;25.23;50.95;100389.25;5069989;28;45469;-65
2022/08/16 09:39:46;;;;;;;;;20.00;19.33;;;;;25.29;50.97;100383.47;5075133;28;45546;-66
2022/08/16 09:42:14;;;;;;;;;23.00;21.00;;;;;25.43;50.69;100399.53;5065411;28;45426;-65
2022/08/16 09:44:40;;;;;;;;;21.33;21.33;;;;;25.39;50.95;100390.84;5055447;28;45860;-65
2022/08/16 09:47:06;;;;;;;;;20.33;19.00;;;;;25.46;50.40;100399.34;5070595;28;45437;-66
2022/08/16 09:49:31;;;;;;;;;22.33;20.67;;;;;25.28;50.46;100363.00;5069694;28;46100;-65
2022/08/16 09:51:57;;;;;;;;;17.67;17.67;;;;;25.44;50.60;100390.53;5070397;28;45438;-65
2022/08/16 09:54:26;;;;;;;;;19.33;18.67;;;;;25.41;51.24;100384.50;5070411;27;45389;-66
2022/08/16 09:56:51;;;;;;;;;18.00;17.33;;;;;25.41;50.97;100366.59;5071878;28;45521;-65
2022/08/16 09:59:17;;;;;;;;;17.67;17.00;;;;;25.58;50.75;100371.72;5070886;28;45457;-67
2022/08/16 10:01:46;;;;;;;;;21.33;20.67;;;;;25.75;50.02;100375.94;5070203;28;45481;-65
2022/08/16 10:04:15;;;;;;;;;20.67;18.67;;;;;25.74;50.02;100400.19;5069919;27;45358;-65
2022/08/16 10:06:41;;;;;;;;;20.33;19.00;;;;;25.79;50.32;100408.78;5069236;28;45386;-65
2022/08/16 10:09:08;;;;;;;;;20.00;19.00;;;;;25.79;49.42;100393.56;5051146;28;45474;-65
2022/08/16 10:14:21;;;;;;;;;16.33;16.00;;;;;25.92;49.01;100393.63;5074563;28;45425;-65
2022/08/16 10:16:47;;;;;;;;;17.67;16.67;;;;;25.96;49.27;100397.81;5063275;27;45701;-65
2022/08/16 10:19:14;;;;;;;;;20.00;18.00;;;;;26.15;48.73;100394.75;5073833;28;45461;-64
2022/08/16 10:21:40;;;;;;;;;22.00;19.33;;;;;26.31;48.18;100388.31;5066543;28;45593;-65
2022/08/16 10:24:07;;;;;;;;;20.67;18.33;;;;;26.36;48.24;100397.78;5070013;28;45478;-66
2022/08/16 10:26:34;;;;;;;;;19.67;18.33;;;;;26.16;48.36;100377.66;5069372;28;45446;-65
2022/08/16 10:29:02;;;;;;;;;17.00;16.33;;;;;26.20;48.56;100394.44;5069008;28;45499;-65
2022/08/16 10:31:27;;;;;;;;;16.00;14.33;;;;;26.15;48.55;100388.50;5073306;28;45421;-65
2022/08/16 10:33:54;;;;;;;;;18.67;18.67;;;;;25.97;48.57;100404.03;5069410;28;45410;-65
2022/08/16 10:36:20;;;;;;;;;17.33;16.00;;;;;25.88;48.47;100410.03;5068751;28;45325;-63
2022/08/16 10:38:45;;;;;;;;;20.00;16.67;;;;;25.90;49.13;100394.69;5071505;28;45562;-65
2022/08/16 10:41:12;;;;;;;;;19.00;18.33;;;;;25.95;48.79;100403.28;5058599;28;45674;-65
2022/08/16 10:43:39;;;;;;;;;20.00;18.33;;;;;26.00;48.77;100393.94;5045454;28;45517;-63
2022/08/16 10:46:10;;;;;;;;;19.33;18.33;;;;;26.07;48.94;100393.53;5053096;28;45752;-64
2022/08/16 10:48:36;;;;;;;;;22.33;19.67;;;;;26.17;48.65;100384.78;5054930;28;45505;-65
2022/08/16 10:51:02;;;;;;;;;15.33;15.00;;;;;26.26;48.72;100385.09;5057521;28;45423;-64
2022/08/16 10:53:30;;;;;;;;;16.33;15.67;;;;;26.34;48.46;100383.59;5060578;28;45654;-64
2022/08/16 10:55:58;;;;;;;;;20.00;18.00;;;;;26.40;47.96;100390.34;5057104;28;45498;-65
2022/08/16 10:58:24;;;;;;;;;21.67;21.00;;;;;26.33;47.51;100389.91;5055366;28;45810;-64
2022/08/16 11:00:50;;;;;;;;;19.33;17.33;;;;;26.20;48.32;100383.69;5055541;28;45403;-65
2022/08/16 11:03:15;;;;;;;;;21.33;21.33;;;;;26.13;48.90;100404.72;5055869;28;45534;-64
2022/08/16 11:05:42;;;;;;;;;18.67;17.33;;;;;25.95;48.33;100401.44;5055738;28;45366;-66
2022/08/16 11:08:10;;;;;;;;;18.67;18.00;;;;;25.97;48.48;100404.91;5054976;28;45709;-64
2022/08/16 11:10:40;;;;;;;;;17.33;14.33;;;;;26.16;48.42;100401.81;5053722;28;45380;-64
2022/08/16 11:13:06;;;;;;;;;16.67;16.67;;;;;26.33;48.32;100403.34;5043114;28;45433;-65